Stations météo

Publicité
Luchon/SA, France (7724): Température de l'air & dewpoint: 25.10.2020 23:00:00 - 31.10.2020 23:00:00 (CET)Luchon/SA, France (7724): Vitesse du vent & gusts: 25.10.2020 23:00:00 - 31.10.2020 23:00:00 (CET)Luchon/SA, France (7724): Direction du vent: 25.10.2020 23:00:00 - 31.10.2020 23:00:00 (CET)Luchon/SA, France (7724): Quantités de précipitations: 25.10.2020 23:00:00 - 31.10.2020 23:00:00 (CET)
Date & Time tt [°C] td [°C] ff [km/h] ff [knt] fx [km/h] fx [knt] dd rr [mm]
31.10.2020 23:00:00 6,0 4,0 0 0 7 4 N 0,0
31.10.2020 22:00:00 6,7 4,7 2 1 7 4 NNW 0,0
31.10.2020 21:00:00 7,7 4,8 4 2 8 5 SSW 0,0
31.10.2020 20:00:00 9,1 5,1 3 1 10 5 WSW 0,0
31.10.2020 19:00:00 10,4 5,6 2 1 10 6 SSW 0,0
31.10.2020 18:00:00 12,6 6,4 4 2 19 10 SSE 0,0
31.10.2020 17:00:00 17,5 4,8 13 7 24 13 SSW 0,0
31.10.2020 16:00:00 22,1 4,6 5 3 18 10 WSW 0,0
31.10.2020 15:00:00 23,4 2,8 10 6 33 18 N 0,0
31.10.2020 14:00:00 23,9 4,3 5 3 25 13 SSW 0,0
31.10.2020 13:00:00 23,2 4,7 0 0 5 3 N 0,0
31.10.2020 12:00:00 19,8 6,2 0 0 8 4 N 0,0
31.10.2020 11:00:00 13,9 6,3 5 3 10 5 N 0,0
31.10.2020 10:00:00 7,1 6,5 2 1 9 5 SE 0,0
31.10.2020 09:00:00 2,6 2,5 3 2 8 5 WSW 0,0
31.10.2020 08:00:00 2,2 2,2 3 2 8 4 W 0,0
31.10.2020 07:00:00 2,7 2,7 5 3 10 6 WNW 0,0
31.10.2020 06:00:00 2,6 2,6 2 1 6 3 SW 0,0
31.10.2020 05:00:00 3,2 2,8 2 1 7 4 S 0,0
31.10.2020 04:00:00 3,9 3,6 3 1 8 4 NNE 0,0
31.10.2020 03:00:00 4,2 4,1 2 1 7 4 S 0,0
31.10.2020 02:00:00 4,1 3,8 0 0 8 5 N 0,0
31.10.2020 01:00:00 4,1 3,7 0 0 7 4 N 0,0
31.10.2020 00:00:00 4,6 4,5 0 0 5 3 N 0,0
30.10.2020 23:00:00 5,1 4,5 0 0 4 2 N 0,0
30.10.2020 22:00:00 6,0 5,4 0 0 6 3 N 0,0
30.10.2020 21:00:00 7,2 6,1 0 0 5 3 N 0,0
30.10.2020 20:00:00 8,1 6,6 0 0 4 2 N 0,0
30.10.2020 19:00:00 10,0 7,4 0 0 6 3 N 0,0
30.10.2020 18:00:00 12,0 7,7 0 0 8 4 N 0,0
30.10.2020 17:00:00 15,0 7,8 3 2 16 8 S 0,0
30.10.2020 16:00:00 19,8 8,8 8 5 15 8 SSW 0,0
30.10.2020 15:00:00 23,3 7,8 3 1 18 10 NNW 0,0
30.10.2020 14:00:00 22,2 7,6 4 2 13 7 ENE 0,0
30.10.2020 13:00:00 21,1 9,0 3 2 6 3 SSW 0,0
30.10.2020 12:00:00 18,6 7,7 0 0 5 3 N 0,0
30.10.2020 11:00:00 12,5 8,8 2 1 8 4 SE 0,0
30.10.2020 10:00:00 7,9 7,9 0 0 4 2 N 0,0
30.10.2020 09:00:00 2,4 2,4 2 1 5 3 S 0,0
30.10.2020 08:00:00 2,5 2,5 0 0 4 2 N 0,0
30.10.2020 07:00:00 2,7 2,7 2 1 5 3 N 0,0
30.10.2020 06:00:00 2,8 2,8 0 0 7 4 N 0,0
30.10.2020 05:00:00 2,8 2,8 0 0 4 2 N 0,0
30.10.2020 04:00:00 3,8 3,8 2 1 4 2 WNW 0,0
30.10.2020 03:00:00 4,1 4,0 0 0 5 3 N 0,0
30.10.2020 02:00:00 4,4 4,3 0 0 4 2 N 0,0
30.10.2020 01:00:00 4,2 3,6 0 0 5 3 N 0,0
30.10.2020 00:00:00 5,2 5,1 2 1 3 2 SSW 0,0
29.10.2020 23:00:00 6,4 6,4 0 0 4 2 N 0,0
29.10.2020 22:00:00 7,3 7,0 0 0 5 3 N 0,0
29.10.2020 21:00:00 7,9 7,1 0 0 8 4 N 0,0
29.10.2020 20:00:00 8,6 7,1 0 0 12 7 N 0,0
29.10.2020 19:00:00 11,2 8,8 11 6 22 12 S 0,0
29.10.2020 18:00:00 12,2 9,4 11 6 18 10 S 0,0
29.10.2020 17:00:00 13,9 9,7 6 3 27 15 S 0,0
29.10.2020 16:00:00 17,0 10,1 9 5 28 15 N 0,0
29.10.2020 15:00:00 17,5 10,6 14 7 29 16 N 0,0
29.10.2020 14:00:00 17,9 10,0 13 7 24 13 N 0,0
29.10.2020 13:00:00 17,7 9,3 4 2 10 5 NE 0,0
29.10.2020 12:00:00 16,7 8,9 3 2 8 4 S 0,0
29.10.2020 11:00:00 14,8 8,5 2 1 9 5 NE 0,0
29.10.2020 10:00:00 11,7 8,2 4 2 13 7 SE 0,0
29.10.2020 09:00:00 9,3 7,7 2 1 23 12 N 0,0
29.10.2020 08:00:00 10,6 7,5 16 9 25 14 SSW 0,0
29.10.2020 07:00:00 10,2 9,1 5 3 12 6 SSE 0,0
29.10.2020 06:00:00 10,2 9,6 0 0 5 3 N 0,0
29.10.2020 05:00:00 10,3 9,7 0 0 4 2 N 0,0
29.10.2020 04:00:00 10,4 9,9 3 2 9 5 SE 0,0
29.10.2020 03:00:00 10,1 9,8 3 1 11 6 SSE 0,0
29.10.2020 02:00:00 10,4 9,8 3 2 6 3 N 0,0
29.10.2020 01:00:00 10,7 9,9 3 1 6 3 NW 0,0
29.10.2020 00:00:00 11,0 10,1 3 1 5 3 NNE 0,0
28.10.2020 23:00:00 11,1 9,8 2 1 10 6 WNW 0,0
28.10.2020 22:00:00 11,2 9,8 5 3 20 11 N 0,0
28.10.2020 21:00:00 11,4 9,8 9 5 29 15 NNE 0,0
28.10.2020 20:00:00 12,1 10,5 14 8 29 16 N 0,0
28.10.2020 19:00:00 12,8 11,0 5 3 18 10 N 0,0
28.10.2020 18:00:00 13,3 10,8 6 3 22 12 NNE 0,0
28.10.2020 17:00:00 13,9 10,7 14 8 28 15 N 0,0
28.10.2020 16:00:00 14,4 10,8 14 8 31 17 N 0,0
28.10.2020 15:00:00 15,0 10,8 18 10 31 17 N 0,0
28.10.2020 14:00:00 14,9 10,5 16 9 27 15 N 0,0
28.10.2020 13:00:00 14,8 11,9 4 2 22 12 S 0,0
28.10.2020 12:00:00 13,2 11,4 12 7 24 13 NNE 0,0
28.10.2020 11:00:00 12,1 10,8 8 5 14 7 N 0,0
28.10.2020 10:00:00 10,5 10,0 3 2 8 4 S 0,0
28.10.2020 09:00:00 9,3 9,3 0 0 4 2 N 0,0
28.10.2020 08:00:00 8,7 8,7 0 0 5 3 N 0,0
28.10.2020 07:00:00 8,2 8,2 3 2 7 4 SSW 0,0
28.10.2020 06:00:00 8,0 8,0 2 1 9 5 WNW 0,0
28.10.2020 05:00:00 7,9 7,8 4 2 7 4 SSW 0,0
28.10.2020 04:00:00 8,0 8,0 2 1 6 3 S 0,0
28.10.2020 03:00:00 8,8 8,7 3 1 14 8 WSW 0,0
28.10.2020 02:00:00 8,8 8,7 5 3 12 6 SE 0,0
28.10.2020 01:00:00 9,2 9,1 0 0 6 3 N 0,0
28.10.2020 00:00:00 9,3 9,2 2 1 5 3 SSW 0,0
27.10.2020 23:00:00 9,6 8,8 3 2 6 3 N 0,2
27.10.2020 22:00:00 10,2 9,1 3 2 12 6 E 0,0
27.10.2020 21:00:00 10,4 8,7 2 1 6 4 W 0,0
27.10.2020 20:00:00 10,4 8,5 2 1 12 7 SE 0,0
27.10.2020 19:00:00 11,0 8,6 4 2 17 9 NNW 0,0
27.10.2020 18:00:00 12,2 9,0 4 2 18 10 SSE 0,0
27.10.2020 17:00:00 13,8 9,8 4 2 8 4 S 0,0
27.10.2020 16:00:00 14,5 5,6 4 2 12 6 NNW 0,0
27.10.2020 15:00:00 16,2 6,0 0 0 8 4 N 0,0
27.10.2020 14:00:00 15,2 5,7 2 1 10 5 S 0,0
27.10.2020 13:00:00 12,7 7,6 2 1 8 5 N 0,0
27.10.2020 12:00:00 10,3 6,6 3 2 7 4 NE 0,0
27.10.2020 11:00:00 8,3 6,3 0 0 7 4 N 0,0
27.10.2020 10:00:00 7,1 5,6 5 3 9 5 SSE 0,0
27.10.2020 09:00:00 5,2 5,1 0 0 9 5 N 0,0
27.10.2020 08:00:00 4,2 4,1 3 2 6 4 SE 0,0
27.10.2020 07:00:00 5,3 5,3 0 0 8 4 N 0,0
27.10.2020 06:00:00 5,2 5,2 4 2 7 4 S 0,0
27.10.2020 05:00:00 5,0 5,0 0 0 7 4 N 0,0
27.10.2020 04:00:00 5,3 5,3 0 0 4 2 N 0,0
27.10.2020 03:00:00 5,3 5,2 0 0 7 4 N 0,0
27.10.2020 02:00:00 5,4 5,3 2 1 8 4 SE 0,0
27.10.2020 01:00:00 4,6 4,5 3 2 6 3 SE 0,0
27.10.2020 00:00:00 5,6 5,3 0 0 6 4 N 0,2
26.10.2020 23:00:00 5,4 5,3 2 1 9 5 NNW 0,0
26.10.2020 22:00:00 5,0 4,9 4 2 7 4 SSE 0,0
26.10.2020 21:00:00 5,6 5,2 4 2 7 4 SE 0,0
26.10.2020 20:00:00 5,8 5,5 3 1 9 5 NNW 0,0
26.10.2020 19:00:00 6,7 6,3 0 0 8 4 N 0,0
26.10.2020 18:00:00 7,8 6,9 3 2 6 4 ENE 0,0
26.10.2020 17:00:00 8,3 6,4 4 2 8 4 N 0,2
26.10.2020 16:00:00 8,4 6,7 4 2 18 10 NNE 0,2
26.10.2020 15:00:00 8,8 5,7 3 1 11 6 ENE 0,0
26.10.2020 14:00:00 8,4 6,2 3 1 17 9 N 0,0
26.10.2020 13:00:00 7,3 5,6 9 5 33 18 N 0,2
26.10.2020 12:00:00 7,7 6,8 13 7 24 13 N 0,4
26.10.2020 11:00:00 7,0 5,8 10 6 20 11 N 0,6
26.10.2020 10:00:00 7,0 5,5 2 1 5 3 E 0,2
26.10.2020 09:00:00 6,5 5,9 4 2 8 4 N 0,2
26.10.2020 08:00:00 6,0 5,4 3 1 4 2 E 0,0
26.10.2020 07:00:00 6,0 5,0 5 3 11 6 ESE 0,0
26.10.2020 06:00:00 6,3 4,5 9 5 21 11 SSW 0,2
26.10.2020 05:00:00 6,7 6,0 4 2 11 6 S 1,4
26.10.2020 04:00:00 7,0 6,7 3 2 7 4 SE 0,8
26.10.2020 03:00:00 7,2 6,9 4 2 7 4 N 0,0
26.10.2020 02:00:00 7,3 6,9 0 0 9 5 N 0,8
26.10.2020 01:00:00 7,4 6,8 3 1 20 11 SW 0,6
26.10.2020 00:00:00 7,6 7,0 5 3 15 8 NE 4,0
25.10.2020 23:00:00 8,3 7,2 11 6 49 26 NNE 4,6

tt = Température de l'air
td = dewpoint
ff = Vitesse du vent
fx = gusts
dd = Direction du vent
rr = Quantités de précipitations

stations d'obs. à proximité